createdAt,value
2022-12-13T00:02:03.826Z,-1.14
2022-12-13T00:04:49.309Z,-1.18
2022-12-13T00:07:35.589Z,-1.18
2022-12-13T00:10:21.166Z,-1.23
2022-12-13T00:13:06.730Z,-1.29
2022-12-13T00:16:00.275Z,-1.37
2022-12-13T00:18:51.073Z,-1.47
2022-12-13T00:21:36.545Z,-1.53
2022-12-13T00:24:22.102Z,-1.64
2022-12-13T00:27:07.912Z,-1.67
2022-12-13T00:29:53.295Z,-1.67
2022-12-13T00:32:38.744Z,-1.67
2022-12-13T00:35:24.019Z,-1.63
2022-12-13T00:38:10.481Z,-1.57
2022-12-13T00:40:55.987Z,-1.47
2022-12-13T00:43:41.991Z,-1.42
2022-12-13T00:46:28.864Z,-1.39
2022-12-13T00:49:14.421Z,-1.42
2022-12-13T00:52:00.207Z,-1.44
2022-12-13T00:55:43.123Z,-1.46
2022-12-13T00:58:52.142Z,-1.47
2022-12-13T01:01:38.214Z,-1.46
2022-12-13T01:04:23.508Z,-1.41
2022-12-13T01:07:08.901Z,-1.37
2022-12-13T01:09:54.233Z,-1.43
2022-12-13T01:12:39.918Z,-1.42
2022-12-13T01:15:25.509Z,-1.40
2022-12-13T01:18:14.518Z,-1.38
2022-12-13T01:21:11.818Z,-1.37
2022-12-13T01:24:03.437Z,-1.44
2022-12-13T01:26:48.954Z,-1.46
2022-12-13T01:29:34.337Z,-1.41
2022-12-13T01:33:13.968Z,-1.31
2022-12-13T01:36:06.196Z,-1.27
2022-12-13T01:38:51.436Z,-1.28
2022-12-13T01:41:45.636Z,-1.27
2022-12-13T01:44:56.018Z,-1.30
2022-12-13T01:47:47.006Z,-1.31
2022-12-13T01:50:43.059Z,-1.27
2022-12-13T01:53:33.476Z,-1.19
2022-12-13T01:56:23.631Z,-1.10
2022-12-13T01:59:11.810Z,-1.00
2022-12-13T02:02:00.624Z,-0.93
2022-12-13T02:04:57.327Z,-0.90
2022-12-13T02:07:45.218Z,-0.88
2022-12-13T02:10:32.406Z,-0.81
2022-12-13T02:13:17.995Z,-0.77
2022-12-13T02:16:09.619Z,-0.74
2022-12-13T02:19:07.468Z,-0.71
2022-12-13T02:22:21.982Z,-0.71
2022-12-13T02:25:35.329Z,-0.70
2022-12-13T02:29:01.449Z,-0.75
2022-12-13T02:32:20.351Z,-0.86
2022-12-13T02:35:23.733Z,-0.95
2022-12-13T02:38:22.972Z,-1.03
2022-12-13T02:41:15.664Z,-1.11
2022-12-13T02:44:21.899Z,-1.18
2022-12-13T02:47:22.118Z,-1.26
2022-12-13T02:50:10.914Z,-1.38
2022-12-13T02:52:58.053Z,-1.43
2022-12-13T02:55:43.623Z,-1.46
2022-12-13T02:58:33.961Z,-1.49
2022-12-13T03:01:40.412Z,-1.52
2022-12-13T03:05:14.474Z,-1.56
2022-12-13T03:08:25.609Z,-1.62
2022-12-13T03:11:15.168Z,-1.67
2022-12-13T03:14:06.069Z,-1.73
2022-12-13T03:16:54.841Z,-1.80
2022-12-13T03:19:40.444Z,-1.82
2022-12-13T03:22:26.436Z,-1.88
2022-12-13T03:25:11.970Z,-1.90
2022-12-13T03:27:57.366Z,-1.92
2022-12-13T03:30:47.066Z,-1.90
2022-12-13T03:33:33.227Z,-1.92
2022-12-13T03:36:19.464Z,-1.94
2022-12-13T03:39:04.906Z,-1.99
2022-12-13T03:41:50.727Z,-1.99
2022-12-13T03:44:36.021Z,-1.99
2022-12-13T03:47:21.349Z,-2.01
2022-12-13T03:50:25.676Z,-2.03
2022-12-13T03:53:21.971Z,-2.01
2022-12-13T03:56:17.404Z,-2.02
2022-12-13T03:59:03.088Z,-2.04
2022-12-13T04:01:48.862Z,-2.03
2022-12-13T04:04:34.694Z,-2.02
2022-12-13T04:07:22.473Z,-2.00
2022-12-13T04:10:26.441Z,-1.95
2022-12-13T04:13:30.697Z,-1.92
2022-12-13T04:16:16.575Z,-1.88
2022-12-13T04:19:01.832Z,-1.80
2022-12-13T04:21:47.302Z,-1.69
2022-12-13T04:24:32.716Z,-1.63
2022-12-13T04:27:18.812Z,-1.52
2022-12-13T04:30:08.751Z,-1.41
2022-12-13T04:32:54.039Z,-1.30
2022-12-13T04:35:39.412Z,-1.25
2022-12-13T04:38:24.772Z,-1.15
2022-12-13T04:41:16.397Z,-1.13
2022-12-13T04:44:02.698Z,-1.08
2022-12-13T04:46:48.325Z,-1.02
2022-12-13T04:49:34.543Z,-0.99
2022-12-13T04:52:22.609Z,-0.94
2022-12-13T04:55:09.182Z,-0.88
2022-12-13T04:57:54.544Z,-0.91
2022-12-13T05:00:40.927Z,-0.89
2022-12-13T05:03:30.452Z,-0.87
2022-12-13T05:06:27.204Z,-0.84
2022-12-13T05:09:13.443Z,-0.81
2022-12-13T05:12:01.150Z,-0.77
2022-12-13T05:14:47.331Z,-0.77
2022-12-13T05:17:32.980Z,-0.71
2022-12-13T05:20:18.969Z,-0.66
2022-12-13T05:23:04.617Z,-0.64
2022-12-13T05:25:51.355Z,-0.66
2022-12-13T05:28:38.518Z,-0.64
2022-12-13T05:31:24.956Z,-0.58
2022-12-13T05:34:10.778Z,-0.58
2022-12-13T05:36:56.095Z,-0.55
2022-12-13T05:39:41.583Z,-0.53
2022-12-13T05:42:27.008Z,-0.53
2022-12-13T05:45:13.149Z,-0.53
2022-12-13T05:47:59.326Z,-0.51
2022-12-13T05:50:44.832Z,-0.51
2022-12-13T05:53:31.356Z,-0.51
2022-12-13T05:56:22.467Z,-0.54
2022-12-13T05:59:08.985Z,-0.54
2022-12-13T06:01:54.398Z,-0.53
2022-12-13T06:04:39.704Z,-0.50
2022-12-13T06:07:25.031Z,-0.53
2022-12-13T06:10:10.992Z,-0.51
2022-12-13T06:13:00.897Z,-0.48
2022-12-13T06:15:47.307Z,-0.44
2022-12-13T06:18:34.920Z,-0.39
2022-12-13T06:21:21.126Z,-0.37
2022-12-13T06:24:08.774Z,-0.36
2022-12-13T06:26:55.219Z,-0.36
2022-12-13T06:29:41.065Z,-0.37
2022-12-13T06:32:26.597Z,-0.38
2022-12-13T06:35:28.729Z,-0.46
2022-12-13T06:38:21.822Z,-0.47
2022-12-13T06:41:12.822Z,-0.48
2022-12-13T06:43:58.547Z,-0.48
2022-12-13T06:46:44.242Z,-0.50
2022-12-13T06:49:32.238Z,-0.51
2022-12-13T06:52:18.382Z,-0.48
2022-12-13T06:55:04.437Z,-0.46
2022-12-13T06:57:50.019Z,-0.45
2022-12-13T07:00:48.340Z,-0.45
2022-12-13T07:03:36.073Z,-0.52
2022-12-13T07:06:23.442Z,-0.55
2022-12-13T07:09:08.779Z,-0.55
2022-12-13T07:11:54.017Z,-0.49
2022-12-13T07:14:40.622Z,-0.39
2022-12-13T07:17:32.467Z,-0.36
2022-12-13T07:20:20.319Z,-0.29
2022-12-13T07:23:05.899Z,-0.28
2022-12-13T07:25:55.173Z,-0.22
2022-12-13T07:28:40.730Z,-0.19
2022-12-13T07:31:26.840Z,-0.23
2022-12-13T07:34:15.609Z,-0.29
2022-12-13T07:37:01.645Z,-0.37
2022-12-13T07:39:47.236Z,-0.42
2022-12-13T07:42:33.156Z,-0.49
2022-12-13T07:45:19.289Z,-0.51
2022-12-13T07:48:06.149Z,-0.49
2022-12-13T07:50:54.823Z,-0.47
2022-12-13T07:53:41.182Z,-0.45
2022-12-13T07:56:26.438Z,-0.42
2022-12-13T07:59:12.087Z,-0.38
2022-12-13T08:01:57.787Z,-0.34
2022-12-13T08:04:54.680Z,-0.29
2022-12-13T08:07:40.833Z,-0.26
2022-12-13T08:10:28.066Z,-0.25
2022-12-13T08:13:13.431Z,-0.22
2022-12-13T08:16:03.192Z,-0.18
2022-12-13T08:18:48.808Z,-0.22
2022-12-13T08:21:57.440Z,-0.27
2022-12-13T08:24:44.073Z,-0.15
2022-12-13T08:27:29.778Z,-0.08
2022-12-13T08:30:22.817Z,0.06
2022-12-13T08:33:08.999Z,0.18
2022-12-13T08:35:54.422Z,0.26
2022-12-13T08:38:39.811Z,0.36
2022-12-13T08:41:25.213Z,0.41
2022-12-13T08:44:10.648Z,0.40
2022-12-13T08:46:56.278Z,0.44
2022-12-13T08:49:42.015Z,0.52
2022-12-13T08:52:27.729Z,0.61
2022-12-13T08:55:14.863Z,0.62
2022-12-13T08:58:06.992Z,0.66
2022-12-13T09:00:52.413Z,0.72
2022-12-13T09:03:38.424Z,0.76
2022-12-13T09:06:23.938Z,0.76
2022-12-13T09:09:09.662Z,0.80
2022-12-13T09:11:59.558Z,0.81
2022-12-13T09:14:46.977Z,0.79
2022-12-13T09:17:36.838Z,0.82
2022-12-13T09:20:29.726Z,0.82
2022-12-13T09:23:23.365Z,0.81
2022-12-13T09:26:15.027Z,0.81
2022-12-13T09:29:10.650Z,0.83
2022-12-13T09:31:57.923Z,0.91
2022-12-13T09:34:46.063Z,0.88
2022-12-13T09:37:32.259Z,0.85
2022-12-13T09:40:26.264Z,0.90
2022-12-13T09:43:22.818Z,0.96
2022-12-13T09:46:24.728Z,1.08
2022-12-13T09:49:35.215Z,1.18
2022-12-13T09:52:24.830Z,1.25
2022-12-13T09:55:23.545Z,1.29
2022-12-13T09:58:17.426Z,1.34
2022-12-13T10:01:05.410Z,1.39
2022-12-13T10:03:53.210Z,1.43
2022-12-13T10:06:38.596Z,1.45
2022-12-13T10:09:24.075Z,1.48
2022-12-13T10:12:14.635Z,1.54
2022-12-13T10:15:02.973Z,1.63
2022-12-13T10:17:55.249Z,1.68
2022-12-13T10:20:42.265Z,1.71
2022-12-13T10:23:52.449Z,1.76
2022-12-13T10:26:39.723Z,1.80
2022-12-13T10:29:26.491Z,1.83
2022-12-13T10:32:13.733Z,1.89
2022-12-13T10:34:59.733Z,1.93
2022-12-13T10:37:45.330Z,1.94
2022-12-13T10:40:49.321Z,1.89
2022-12-13T10:43:36.183Z,1.84
2022-12-13T10:46:25.058Z,1.81
2022-12-13T10:49:30.731Z,1.77
2022-12-13T10:52:43.230Z,1.74
2022-12-13T10:55:33.807Z,1.73
2022-12-13T10:58:20.307Z,1.71
2022-12-13T11:01:19.451Z,1.77
2022-12-13T11:04:23.909Z,1.88
2022-12-13T11:07:33.319Z,1.99
2022-12-13T11:10:27.314Z,2.10
2022-12-13T11:13:34.317Z,2.21
2022-12-13T11:16:40.710Z,2.32
2022-12-13T11:19:35.006Z,2.42
2022-12-13T11:22:32.856Z,2.52
2022-12-13T11:25:36.107Z,2.59
2022-12-13T11:28:39.183Z,2.62
2022-12-13T11:31:50.096Z,2.65
2022-12-13T11:34:57.194Z,2.69
2022-12-13T11:38:01.099Z,2.73
2022-12-13T11:40:52.787Z,2.76
2022-12-13T11:43:44.846Z,2.76
2022-12-13T11:46:42.632Z,2.75
2022-12-13T11:49:45.673Z,2.80
2022-12-13T11:52:39.270Z,2.79
2022-12-13T11:55:24.897Z,2.79
2022-12-13T11:59:01.914Z,2.78
2022-12-13T12:02:16.949Z,2.80
2022-12-13T12:05:22.628Z,2.82
2022-12-13T12:08:32.325Z,2.84
2022-12-13T12:12:03.083Z,2.86
2022-12-13T12:14:56.885Z,2.87
2022-12-13T12:17:50.739Z,2.85
2022-12-13T12:20:47.753Z,2.86
2022-12-13T12:24:02.126Z,2.89
2022-12-13T12:26:48.049Z,2.90
2022-12-13T12:29:51.651Z,2.91
2022-12-13T12:32:43.043Z,2.93
2022-12-13T12:35:50.563Z,2.94
2022-12-13T12:38:54.468Z,3.01
2022-12-13T12:41:48.816Z,3.03
2022-12-13T12:44:49.203Z,3.05
2022-12-13T12:51:29.210Z,3.14
2022-12-13T12:54:38.497Z,3.15
2022-12-13T12:57:43.576Z,3.16
2022-12-13T13:00:33.081Z,3.17
2022-12-13T13:03:29.808Z,3.18
2022-12-13T13:06:22.736Z,3.21
2022-12-13T13:09:11.254Z,3.23
2022-12-13T13:11:58.120Z,3.22
2022-12-13T13:14:44.064Z,3.22
2022-12-13T13:17:29.858Z,3.28
2022-12-13T13:20:20.768Z,3.36
2022-12-13T13:23:39.822Z,3.41
2022-12-13T13:26:36.603Z,3.41
2022-12-13T13:29:27.623Z,3.44
2022-12-13T13:32:28.723Z,3.43
2022-12-13T13:35:31.188Z,3.47
2022-12-13T13:38:16.815Z,3.44
2022-12-13T13:41:41.148Z,3.46
2022-12-13T13:44:45.183Z,3.40
2022-12-13T13:47:41.699Z,3.39
2022-12-13T13:50:47.422Z,3.35
2022-12-13T13:53:51.638Z,3.29
2022-12-13T13:56:55.220Z,3.25
2022-12-13T13:59:59.746Z,3.18
2022-12-13T14:03:32.878Z,3.07
2022-12-13T14:06:35.357Z,3.01
2022-12-13T14:09:48.583Z,2.96
2022-12-13T14:13:10.390Z,2.82
2022-12-13T14:16:07.255Z,2.68
2022-12-13T14:19:42.807Z,2.59
2022-12-13T14:22:37.290Z,2.52
2022-12-13T14:25:45.087Z,2.43
2022-12-13T14:28:50.040Z,2.34
2022-12-13T14:31:44.735Z,2.24
2022-12-13T14:34:33.729Z,2.15
2022-12-13T14:37:37.868Z,2.01
2022-12-13T14:40:29.031Z,1.95
2022-12-13T14:43:28.750Z,1.89
2022-12-13T14:46:16.025Z,1.82
2022-12-13T14:49:05.024Z,1.78
2022-12-13T14:52:03.612Z,1.72
2022-12-13T14:54:57.977Z,1.68
2022-12-13T14:57:53.431Z,1.65
2022-12-13T15:00:40.776Z,1.65
2022-12-13T15:03:28.145Z,1.61
2022-12-13T15:06:13.982Z,1.60
2022-12-13T15:08:59.893Z,1.58
2022-12-13T15:11:46.566Z,1.61
2022-12-13T15:14:32.496Z,1.64
2022-12-13T15:17:32.464Z,1.72
2022-12-13T15:20:31.592Z,1.76
2022-12-13T15:23:41.698Z,1.82
2022-12-13T15:26:40.172Z,1.85
2022-12-13T15:29:31.167Z,1.88
2022-12-13T15:32:23.352Z,1.87
2022-12-13T15:35:16.717Z,1.89
2022-12-13T15:38:02.655Z,1.93
2022-12-13T15:40:49.575Z,1.96
2022-12-13T15:43:50.386Z,1.97
2022-12-13T15:46:38.284Z,1.96
2022-12-13T15:49:40.451Z,1.94
2022-12-13T15:52:37.031Z,1.98
2022-12-13T15:55:28.615Z,2.01
2022-12-13T15:58:35.201Z,2.03
2022-12-13T16:01:36.931Z,2.07
2022-12-13T16:04:24.922Z,2.12
2022-12-13T16:07:27.725Z,2.16
2022-12-13T16:10:19.319Z,2.21
2022-12-13T16:13:08.230Z,2.29
2022-12-13T16:15:59.756Z,2.32
2022-12-13T16:19:01.191Z,2.36
2022-12-13T16:21:46.929Z,2.40
2022-12-13T16:24:32.249Z,2.42
2022-12-13T16:27:17.885Z,2.43
2022-12-13T16:30:30.277Z,2.41
2022-12-13T16:33:30.535Z,2.39
2022-12-13T16:36:16.254Z,2.39
2022-12-13T16:39:01.583Z,2.40
2022-12-13T16:41:48.014Z,2.39
2022-12-13T16:44:37.519Z,2.39
2022-12-13T16:47:36.385Z,2.36
2022-12-13T16:50:27.459Z,2.37
2022-12-13T16:53:17.285Z,2.43
2022-12-13T16:56:03.213Z,2.48
2022-12-13T16:58:50.548Z,2.51
2022-12-13T17:01:36.884Z,2.51
2022-12-13T17:04:24.690Z,2.52
2022-12-13T17:07:09.956Z,2.53
2022-12-13T17:09:55.318Z,2.55
2022-12-13T17:12:40.854Z,2.55
2022-12-13T17:15:26.492Z,2.55
2022-12-13T17:18:11.817Z,2.57
2022-12-13T17:20:58.697Z,2.58
2022-12-13T17:23:44.583Z,2.57
2022-12-13T17:26:29.928Z,2.55
2022-12-13T17:29:17.833Z,2.54
2022-12-13T17:32:04.687Z,2.55
2022-12-13T17:34:51.071Z,2.52
2022-12-13T17:37:36.524Z,2.50
2022-12-13T17:40:22.029Z,2.50
2022-12-13T17:43:07.485Z,2.48
2022-12-13T17:46:01.154Z,2.49
2022-12-13T17:48:46.801Z,2.47
2022-12-13T17:51:32.120Z,2.42
2022-12-13T17:54:17.701Z,2.32
2022-12-13T17:57:03.250Z,2.13
2022-12-13T17:59:48.659Z,1.90
2022-12-13T18:02:37.896Z,1.70
2022-12-13T18:05:27.358Z,1.67
2022-12-13T18:08:12.826Z,1.70
2022-12-13T18:11:23.904Z,1.72
2022-12-13T18:14:06.856Z,1.73
2022-12-13T18:16:52.504Z,1.70
2022-12-13T18:19:37.863Z,1.64
2022-12-13T18:22:23.328Z,1.46
2022-12-13T18:25:09.021Z,1.33
2022-12-13T18:28:00.573Z,1.18
2022-12-13T18:30:46.927Z,1.01
2022-12-13T18:33:34.023Z,0.85
2022-12-13T18:36:21.808Z,0.73
2022-12-13T18:39:07.402Z,0.67
2022-12-13T18:41:53.550Z,0.59
2022-12-13T18:44:38.995Z,0.48
2022-12-13T18:47:27.409Z,0.37
2022-12-13T18:50:12.798Z,0.29
2022-12-13T18:52:58.110Z,0.32
2022-12-13T18:55:43.691Z,0.29
2022-12-13T18:58:29.421Z,0.20
2022-12-13T19:01:15.918Z,0.17
2022-12-13T19:04:01.963Z,0.13
2022-12-13T19:06:47.645Z,0.06
2022-12-13T19:09:33.800Z,-0.09
2022-12-13T19:12:19.238Z,-0.18
2022-12-13T19:15:05.121Z,-0.18
2022-12-13T19:17:51.754Z,-0.13
2022-12-13T19:20:37.381Z,-0.19
2022-12-13T19:23:23.045Z,-0.28
2022-12-13T19:26:11.533Z,-0.32
2022-12-13T19:28:58.946Z,-0.24
2022-12-13T19:31:44.526Z,-0.17
2022-12-13T19:34:30.257Z,-0.10
2022-12-13T19:37:16.099Z,-0.11
2022-12-13T19:40:01.525Z,-0.11
2022-12-13T19:42:46.974Z,-0.06
2022-12-13T19:45:32.425Z,-0.03
2022-12-13T19:48:18.294Z,-0.07
2022-12-13T19:51:07.183Z,-0.04
2022-12-13T19:53:52.601Z,-0.02
2022-12-13T19:56:38.153Z,0.06
2022-12-13T19:59:23.620Z,0.12
2022-12-13T20:02:12.553Z,0.16
2022-12-13T20:04:58.308Z,0.26
2022-12-13T20:07:44.513Z,0.32
2022-12-13T20:10:30.090Z,0.38
2022-12-13T20:13:15.701Z,0.44
2022-12-13T20:16:01.783Z,0.51
2022-12-13T20:18:47.410Z,0.57
2022-12-13T20:21:32.901Z,0.61
2022-12-13T20:24:18.201Z,0.67
2022-12-13T20:27:03.727Z,0.72
2022-12-13T20:29:49.564Z,0.75
2022-12-13T20:32:35.222Z,0.80
2022-12-13T20:35:20.696Z,0.83
2022-12-13T20:38:05.923Z,0.86
2022-12-13T20:40:51.404Z,0.88
2022-12-13T20:43:37.048Z,0.92
2022-12-13T20:46:23.336Z,0.97
2022-12-13T20:49:10.034Z,1.00
2022-12-13T20:51:55.455Z,1.04
2022-12-13T20:54:41.032Z,1.14
2022-12-13T20:57:26.363Z,1.37
2022-12-13T21:00:12.510Z,1.55
2022-12-13T21:02:58.047Z,1.69
2022-12-13T21:05:46.542Z,1.86
2022-12-13T21:08:50.943Z,2.00
2022-12-13T21:11:42.995Z,2.12
2022-12-13T21:14:29.044Z,2.20
2022-12-13T21:17:15.659Z,2.24
2022-12-13T21:20:01.102Z,2.32
2022-12-13T21:22:46.818Z,2.36
2022-12-13T21:25:31.996Z,2.40
2022-12-13T21:28:17.573Z,2.45
2022-12-13T21:31:09.094Z,2.50
2022-12-13T21:33:56.939Z,2.54
2022-12-13T21:36:44.611Z,2.58
2022-12-13T21:39:29.982Z,2.62
2022-12-13T21:42:15.338Z,2.62
2022-12-13T21:45:02.459Z,2.64
2022-12-13T21:47:48.367Z,2.66
2022-12-13T21:50:33.860Z,2.71
2022-12-13T21:53:19.513Z,2.73
2022-12-13T21:56:24.948Z,2.74
2022-12-13T21:59:17.339Z,2.75
2022-12-13T22:02:20.678Z,2.80
2022-12-13T22:05:06.753Z,2.84
2022-12-13T22:07:52.442Z,2.84
2022-12-13T22:10:57.642Z,2.88
2022-12-13T22:13:43.347Z,2.88
2022-12-13T22:16:34.164Z,2.88
2022-12-13T22:19:20.074Z,2.86
2022-12-13T22:22:05.678Z,2.88
2022-12-13T22:24:53.727Z,2.88
2022-12-13T22:27:40.525Z,2.89
2022-12-13T22:30:26.248Z,2.88
2022-12-13T22:33:11.484Z,2.79
2022-12-13T22:35:56.922Z,2.74
2022-12-13T22:38:42.241Z,2.73
2022-12-13T22:41:27.596Z,2.71
2022-12-13T22:44:17.841Z,2.66
2022-12-13T22:47:03.428Z,2.60
2022-12-13T22:49:49.013Z,2.62
2022-12-13T22:52:34.614Z,2.64
2022-12-13T22:55:20.586Z,2.64
2022-12-13T22:58:06.380Z,2.54
2022-12-13T23:00:51.853Z,2.40
2022-12-13T23:03:39.528Z,2.31
2022-12-13T23:06:30.377Z,2.22
2022-12-13T23:09:16.296Z,2.19
2022-12-13T23:12:20.126Z,2.21
2022-12-13T23:15:06.770Z,2.22
2022-12-13T23:17:52.301Z,2.21
2022-12-13T23:20:37.619Z,2.19
2022-12-13T23:23:23.817Z,2.18
2022-12-13T23:26:20.355Z,2.17
2022-12-13T23:29:08.266Z,2.10
2022-12-13T23:31:53.893Z,2.01
2022-12-13T23:34:39.309Z,2.03
2022-12-13T23:37:24.932Z,2.03
2022-12-13T23:40:10.971Z,2.08
2022-12-13T23:42:56.895Z,2.11
2022-12-13T23:45:42.230Z,2.12
2022-12-13T23:48:29.002Z,2.10
2022-12-13T23:51:16.622Z,2.09
2022-12-13T23:54:02.282Z,2.08
2022-12-13T23:56:48.232Z,2.07
2022-12-13T23:59:34.577Z,2.08
